sensor_id;sensor_type;location;lat;lon;timestamp;pressure;altitude;pressure_sealevel;temperature;humidity
6413;BME280;3239;48.714;9.472;2022-12-07T00:01:25;98623.38;;;3.59;100.00
6413;BME280;3239;48.714;9.472;2022-12-07T00:03:54;98611.13;;;3.49;100.00
6413;BME280;3239;48.714;9.472;2022-12-07T00:06:22;98612.72;;;3.56;100.00
6413;BME280;3239;48.714;9.472;2022-12-07T00:08:48;98610.59;;;3.60;100.00
6413;BME280;3239;48.714;9.472;2022-12-07T00:11:19;98616.66;;;3.55;100.00
6413;BME280;3239;48.714;9.472;2022-12-07T00:13:45;98608.59;;;3.46;100.00
6413;BME280;3239;48.714;9.472;2022-12-07T00:16:18;98612.34;;;3.48;100.00
6413;BME280;3239;48.714;9.472;2022-12-07T00:18:45;98614.22;;;3.42;100.00
6413;BME280;3239;48.714;9.472;2022-12-07T00:21:27;98618.59;;;3.40;100.00
6413;BME280;3239;48.714;9.472;2022-12-07T00:23:54;98618.41;;;3.43;100.00
6413;BME280;3239;48.714;9.472;2022-12-07T00:26:25;98613.25;;;3.45;100.00
6413;BME280;3239;48.714;9.472;2022-12-07T00:29:00;98615.63;;;3.52;100.00
6413;BME280;3239;48.714;9.472;2022-12-07T00:31:29;98616.84;;;3.51;100.00
6413;BME280;3239;48.714;9.472;2022-12-07T00:33:56;98623.94;;;3.49;100.00
6413;BME280;3239;48.714;9.472;2022-12-07T00:36:23;98612.16;;;3.52;100.00
6413;BME280;3239;48.714;9.472;2022-12-07T00:38:49;98614.88;;;3.52;100.00
6413;BME280;3239;48.714;9.472;2022-12-07T00:41:18;98614.13;;;3.51;100.00
6413;BME280;3239;48.714;9.472;2022-12-07T00:43:46;98617.31;;;3.50;100.00
6413;BME280;3239;48.714;9.472;2022-12-07T00:46:13;98607.69;;;3.49;100.00
6413;BME280;3239;48.714;9.472;2022-12-07T00:48:39;98614.41;;;3.53;100.00
6413;BME280;3239;48.714;9.472;2022-12-07T00:51:06;98614.13;;;3.51;100.00
6413;BME280;3239;48.714;9.472;2022-12-07T00:53:35;98604.78;;;3.52;100.00
6413;BME280;3239;48.714;9.472;2022-12-07T00:56:08;98603.31;;;3.51;100.00
6413;BME280;3239;48.714;9.472;2022-12-07T00:58:35;98607.31;;;3.56;100.00
6413;BME280;3239;48.714;9.472;2022-12-07T01:01:03;98601.13;;;3.55;100.00
6413;BME280;3239;48.714;9.472;2022-12-07T01:03:29;98609.56;;;3.57;100.00
6413;BME280;3239;48.714;9.472;2022-12-07T01:05:56;98603.56;;;3.53;100.00
6413;BME280;3239;48.714;9.472;2022-12-07T01:08:23;98598.22;;;3.44;100.00
6413;BME280;3239;48.714;9.472;2022-12-07T01:10:49;98597.78;;;3.46;100.00
6413;BME280;3239;48.714;9.472;2022-12-07T01:13:22;98601.69;;;3.45;100.00
6413;BME280;3239;48.714;9.472;2022-12-07T01:15:48;98606.34;;;3.44;100.00
6413;BME280;3239;48.714;9.472;2022-12-07T01:18:13;98606.72;;;3.37;100.00
6413;BME280;3239;48.714;9.472;2022-12-07T01:20:39;98596.16;;;3.39;100.00
6413;BME280;3239;48.714;9.472;2022-12-07T01:23:05;98603.44;;;3.33;100.00
6413;BME280;3239;48.714;9.472;2022-12-07T01:25:31;98603.44;;;3.33;100.00
6413;BME280;3239;48.714;9.472;2022-12-07T01:27:57;98603.00;;;3.35;100.00
6413;BME280;3239;48.714;9.472;2022-12-07T01:30:23;98614.84;;;3.37;100.00
6413;BME280;3239;48.714;9.472;2022-12-07T01:32:49;98613.00;;;3.43;100.00
6413;BME280;3239;48.714;9.472;2022-12-07T01:35:14;98610.47;;;3.40;100.00
6413;BME280;3239;48.714;9.472;2022-12-07T01:37:40;98610.75;;;3.42;100.00
6413;BME280;3239;48.714;9.472;2022-12-07T01:40:07;98602.63;;;3.42;100.00
6413;BME280;3239;48.714;9.472;2022-12-07T01:42:34;98603.00;;;3.35;100.00
6413;BME280;3239;48.714;9.472;2022-12-07T01:47:47;98589.00;;;3.36;100.00
6413;BME280;3239;48.714;9.472;2022-12-07T01:50:16;98583.28;;;3.34;100.00
6413;BME280;3239;48.714;9.472;2022-12-07T01:52:43;98569.72;;;3.34;100.00
6413;BME280;3239;48.714;9.472;2022-12-07T01:55:13;98576.47;;;3.39;100.00
6413;BME280;3239;48.714;9.472;2022-12-07T01:57:43;98572.75;;;3.36;100.00
6413;BME280;3239;48.714;9.472;2022-12-07T02:00:11;98567.03;;;3.34;100.00
6413;BME280;3239;48.714;9.472;2022-12-07T02:05:44;98561.22;;;3.27;100.00
6413;BME280;3239;48.714;9.472;2022-12-07T02:08:12;98562.63;;;3.22;100.00
6413;BME280;3239;48.714;9.472;2022-12-07T02:10:39;98575.91;;;3.20;100.00
6413;BME280;3239;48.714;9.472;2022-12-07T02:13:27;98573.72;;;3.24;100.00
6413;BME280;3239;48.714;9.472;2022-12-07T02:24:52;98569.72;;;3.20;100.00
6413;BME280;3239;48.714;9.472;2022-12-07T02:27:36;98573.84;;;3.15;100.00
6413;BME280;3239;48.714;9.472;2022-12-07T02:30:22;98566.16;;;3.14;100.00
6413;BME280;3239;48.714;9.472;2022-12-07T02:35:46;98562.63;;;3.22;100.00
6413;BME280;3239;48.714;9.472;2022-12-07T02:41:03;98554.88;;;3.15;100.00
6413;BME280;3239;48.714;9.472;2022-12-07T02:43:54;98561.03;;;3.16;100.00
6413;BME280;3239;48.714;9.472;2022-12-07T02:46:25;98555.16;;;3.17;100.00
6413;BME280;3239;48.714;9.472;2022-12-07T02:48:53;98559.06;;;3.16;100.00
6413;BME280;3239;48.714;9.472;2022-12-07T02:51:21;98553.09;;;3.12;100.00
6413;BME280;3239;48.714;9.472;2022-12-07T02:53:47;98552.44;;;3.17;100.00
6413;BME280;3239;48.714;9.472;2022-12-07T02:59:50;98551.72;;;3.17;100.00
6413;BME280;3239;48.714;9.472;2022-12-07T03:03:03;98556.56;;;3.13;100.00
6413;BME280;3239;48.714;9.472;2022-12-07T03:08:49;98551.50;;;3.06;100.00
6413;BME280;3239;48.714;9.472;2022-12-07T03:11:51;98547.19;;;2.99;100.00
6413;BME280;3239;48.714;9.472;2022-12-07T03:14:26;98542.50;;;3.00;100.00
6413;BME280;3239;48.714;9.472;2022-12-07T03:19:32;98543.16;;;2.95;100.00
6413;BME280;3239;48.714;9.472;2022-12-07T03:22:13;98550.38;;;2.98;100.00
6413;BME280;3239;48.714;9.472;2022-12-07T03:24:49;98558.31;;;3.01;100.00
6413;BME280;3239;48.714;9.472;2022-12-07T03:27:25;98554.19;;;3.06;100.00
6413;BME280;3239;48.714;9.472;2022-12-07T03:30:15;98558.13;;;3.05;100.00
6413;BME280;3239;48.714;9.472;2022-12-07T03:32:59;98565.78;;;3.06;100.00
6413;BME280;3239;48.714;9.472;2022-12-07T03:36:15;98560.81;;;3.05;100.00
6413;BME280;3239;48.714;9.472;2022-12-07T03:38:50;98561.28;;;3.03;100.00
6413;BME280;3239;48.714;9.472;2022-12-07T03:41:22;98566.22;;;3.05;100.00
6413;BME280;3239;48.714;9.472;2022-12-07T03:43:49;98564.47;;;3.02;100.00
6413;BME280;3239;48.714;9.472;2022-12-07T03:46:52;98555.88;;;3.03;100.00
6413;BME280;3239;48.714;9.472;2022-12-07T03:49:41;98570.91;;;3.04;100.00
6413;BME280;3239;48.714;9.472;2022-12-07T03:57:51;98567.50;;;2.95;100.00
6413;BME280;3239;48.714;9.472;2022-12-07T04:00:19;98571.44;;;2.94;100.00
6413;BME280;3239;48.714;9.472;2022-12-07T04:02:45;98570.22;;;2.95;100.00
6413;BME280;3239;48.714;9.472;2022-12-07T04:05:12;98569.75;;;2.96;100.00
6413;BME280;3239;48.714;9.472;2022-12-07T04:07:38;98567.06;;;2.96;100.00
6413;BME280;3239;48.714;9.472;2022-12-07T04:10:05;98572.19;;;2.94;100.00
6413;BME280;3239;48.714;9.472;2022-12-07T04:12:32;98561.56;;;2.91;100.00
6413;BME280;3239;48.714;9.472;2022-12-07T04:14:59;98566.47;;;2.92;100.00
6413;BME280;3239;48.714;9.472;2022-12-07T04:17:25;98564.25;;;2.91;100.00
6413;BME280;3239;48.714;9.472;2022-12-07T04:19:51;98559.75;;;2.88;100.00
6413;BME280;3239;48.714;9.472;2022-12-07T04:22:17;98566.97;;;2.91;100.00
6413;BME280;3239;48.714;9.472;2022-12-07T04:24:43;98565.44;;;2.90;100.00
6413;BME280;3239;48.714;9.472;2022-12-07T04:27:09;98560.78;;;2.90;100.00
6413;BME280;3239;48.714;9.472;2022-12-07T04:29:35;98568.63;;;2.88;100.00
6413;BME280;3239;48.714;9.472;2022-12-07T04:32:04;98572.72;;;2.84;100.00
6413;BME280;3239;48.714;9.472;2022-12-07T04:34:30;98575.16;;;2.82;100.00
6413;BME280;3239;48.714;9.472;2022-12-07T04:36:57;98578.59;;;2.82;100.00
6413;BME280;3239;48.714;9.472;2022-12-07T04:39:29;98574.56;;;2.78;100.00
6413;BME280;3239;48.714;9.472;2022-12-07T04:41:56;98579.25;;;2.77;100.00
6413;BME280;3239;48.714;9.472;2022-12-07T04:44:25;98569.59;;;2.76;100.00
6413;BME280;3239;48.714;9.472;2022-12-07T04:46:52;98580.59;;;2.73;100.00
6413;BME280;3239;48.714;9.472;2022-12-07T04:49:19;98573.44;;;2.70;100.00
6413;BME280;3239;48.714;9.472;2022-12-07T04:51:46;98568.66;;;2.65;100.00
6413;BME280;3239;48.714;9.472;2022-12-07T04:54:14;98567.31;;;2.60;100.00
6413;BME280;3239;48.714;9.472;2022-12-07T04:56:41;98558.78;;;2.53;100.00
6413;BME280;3239;48.714;9.472;2022-12-07T04:59:07;98560.22;;;2.39;100.00
6413;BME280;3239;48.714;9.472;2022-12-07T05:01:33;98564.19;;;2.29;100.00
6413;BME280;3239;48.714;9.472;2022-12-07T05:04:00;98557.91;;;2.23;100.00
6413;BME280;3239;48.714;9.472;2022-12-07T05:06:26;98551.81;;;2.14;100.00
6413;BME280;3239;48.714;9.472;2022-12-07T05:08:52;98551.97;;;2.10;100.00
6413;BME280;3239;48.714;9.472;2022-12-07T05:11:18;98547.63;;;2.13;100.00
6413;BME280;3239;48.714;9.472;2022-12-07T05:14:13;98552.88;;;2.07;100.00
6413;BME280;3239;48.714;9.472;2022-12-07T05:16:40;98548.25;;;2.08;100.00
6413;BME280;3239;48.714;9.472;2022-12-07T05:19:07;98557.59;;;1.98;100.00
6413;BME280;3239;48.714;9.472;2022-12-07T05:21:32;98553.41;;;1.97;100.00
6413;BME280;3239;48.714;9.472;2022-12-07T05:23:58;98553.41;;;1.97;100.00
6413;BME280;3239;48.714;9.472;2022-12-07T05:26:24;98548.28;;;1.99;100.00
6413;BME280;3239;48.714;9.472;2022-12-07T05:28:55;98550.81;;;2.02;100.00
6413;BME280;3239;48.714;9.472;2022-12-07T05:31:22;98543.13;;;2.10;100.00
6413;BME280;3239;48.714;9.472;2022-12-07T05:33:48;98549.28;;;2.10;100.00
6413;BME280;3239;48.714;9.472;2022-12-07T05:36:14;98557.22;;;2.14;100.00
6413;BME280;3239;48.714;9.472;2022-12-07T05:38:40;98557.50;;;2.16;100.00
6413;BME280;3239;48.714;9.472;2022-12-07T05:41:07;98571.78;;;2.16;100.00
6413;BME280;3239;48.714;9.472;2022-12-07T05:43:54;98568.03;;;2.14;100.00
6413;BME280;3239;48.714;9.472;2022-12-07T05:46:19;98581.38;;;2.17;100.00
6413;BME280;3239;48.714;9.472;2022-12-07T05:48:48;98584.53;;;2.16;100.00
6413;BME280;3239;48.714;9.472;2022-12-07T05:51:13;98579.72;;;2.20;100.00
6413;BME280;3239;48.714;9.472;2022-12-07T05:53:39;98593.66;;;2.18;100.00
6413;BME280;3239;48.714;9.472;2022-12-07T05:56:05;98590.06;;;2.21;100.00
6413;BME280;3239;48.714;9.472;2022-12-07T05:58:31;98581.19;;;2.21;100.00
6413;BME280;3239;48.714;9.472;2022-12-07T06:01:15;98584.94;;;2.23;100.00
6413;BME280;3239;48.714;9.472;2022-12-07T06:03:41;98583.75;;;2.24;100.00
6413;BME280;3239;48.714;9.472;2022-12-07T06:06:06;98586.91;;;2.23;100.00
6413;BME280;3239;48.714;9.472;2022-12-07T06:08:32;98598.31;;;2.27;100.00
6413;BME280;3239;48.714;9.472;2022-12-07T06:10:58;98591.88;;;2.24;100.00
6413;BME280;3239;48.714;9.472;2022-12-07T06:13:42;98583.28;;;2.26;100.00
6413;BME280;3239;48.714;9.472;2022-12-07T06:16:08;98590.50;;;2.29;100.00
6413;BME280;3239;48.714;9.472;2022-12-07T06:18:33;98580.56;;;2.26;100.00
6413;BME280;3239;48.714;9.472;2022-12-07T06:21:00;98585.69;;;2.24;100.00
6413;BME280;3239;48.714;9.472;2022-12-07T06:23:26;98595.03;;;2.23;100.00
6413;BME280;3239;48.714;9.472;2022-12-07T06:25:51;98600.44;;;2.23;100.00
6413;BME280;3239;48.714;9.472;2022-12-07T06:28:17;98598.31;;;2.27;100.00
6413;BME280;3239;48.714;9.472;2022-12-07T06:30:43;98585.69;;;2.24;100.00
6413;BME280;3239;48.714;9.472;2022-12-07T06:33:09;98596.22;;;2.22;100.00
6413;BME280;3239;48.714;9.472;2022-12-07T06:35:34;98598.19;;;2.21;100.00
6413;BME280;3239;48.714;9.472;2022-12-07T06:38:00;98594.16;;;2.17;100.00
6413;BME280;3239;48.714;9.472;2022-12-07T06:40:26;98594.59;;;2.15;100.00
6413;BME280;3239;48.714;9.472;2022-12-07T06:42:51;98606.63;;;2.14;100.00
6413;BME280;3239;48.714;9.472;2022-12-07T06:45:17;98606.00;;;2.19;100.00
6413;BME280;3239;48.714;9.472;2022-12-07T06:47:43;98601.63;;;2.22;100.00
6413;BME280;3239;48.714;9.472;2022-12-07T06:50:09;98601.63;;;2.22;100.00
6413;BME280;3239;48.714;9.472;2022-12-07T06:52:35;98598.63;;;2.20;100.00
6413;BME280;3239;48.714;9.472;2022-12-07T06:55:00;98597.41;;;2.21;100.00
6413;BME280;3239;48.714;9.472;2022-12-07T06:57:26;98598.53;;;2.14;100.00
6413;BME280;3239;48.714;9.472;2022-12-07T06:59:52;98598.53;;;2.14;100.00
6413;BME280;3239;48.714;9.472;2022-12-07T07:02:17;98603.44;;;2.16;100.00
6413;BME280;3239;48.714;9.472;2022-12-07T07:04:43;98619.53;;;2.19;100.00
6413;BME280;3239;48.714;9.472;2022-12-07T07:07:09;98626.69;;;2.22;100.00
6413;BME280;3239;48.714;9.472;2022-12-07T07:09:35;98621.13;;;2.26;100.00
6413;BME280;3239;48.714;9.472;2022-12-07T07:12:01;98628.66;;;2.22;100.00
6413;BME280;3239;48.714;9.472;2022-12-07T07:14:26;98624.34;;;2.15;100.00
6413;BME280;3239;48.714;9.472;2022-12-07T07:16:52;98618.50;;;2.08;100.00
6413;BME280;3239;48.714;9.472;2022-12-07T07:19:18;98623.47;;;2.09;100.00
6413;BME280;3239;48.714;9.472;2022-12-07T07:21:44;98631.69;;;2.15;100.00
6413;BME280;3239;48.714;9.472;2022-12-07T07:24:10;98636.78;;;2.22;100.00
6413;BME280;3239;48.714;9.472;2022-12-07T07:26:36;98631.69;;;2.15;100.00
6413;BME280;3239;48.714;9.472;2022-12-07T07:29:01;98639.94;;;2.11;100.00
6413;BME280;3239;48.714;9.472;2022-12-07T07:31:27;98638.28;;;2.23;100.00
6413;BME280;3239;48.714;9.472;2022-12-07T07:33:53;98645.75;;;2.28;100.00
6413;BME280;3239;48.714;9.472;2022-12-07T07:36:19;98644.38;;;2.32;100.00
6413;BME280;3239;48.714;9.472;2022-12-07T07:38:44;98649.63;;;2.36;100.00
6413;BME280;3239;48.714;9.472;2022-12-07T07:41:10;98650.56;;;2.33;100.00
6413;BME280;3239;48.714;9.472;2022-12-07T07:43:36;98656.66;;;2.42;100.00
6413;BME280;3239;48.714;9.472;2022-12-07T07:46:02;98658.47;;;2.45;100.00
6413;BME280;3239;48.714;9.472;2022-12-07T07:48:27;98658.84;;;2.53;100.00
6413;BME280;3239;48.714;9.472;2022-12-07T07:50:53;98664.16;;;2.47;100.00
6413;BME280;3239;48.714;9.472;2022-12-07T07:53:19;98660.84;;;2.43;100.00
6413;BME280;3239;48.714;9.472;2022-12-07T07:55:55;98663.22;;;2.50;100.00
6413;BME280;3239;48.714;9.472;2022-12-07T07:58:21;98653.59;;;2.58;100.00
6413;BME280;3239;48.714;9.472;2022-12-07T08:00:47;98670.50;;;2.68;100.00
6413;BME280;3239;48.714;9.472;2022-12-07T08:03:13;98663.31;;;2.65;100.00
6413;BME280;3239;48.714;9.472;2022-12-07T08:05:39;98665.22;;;2.73;100.00
6413;BME280;3239;48.714;9.472;2022-12-07T08:08:04;98657.97;;;2.79;100.00
6413;BME280;3239;48.714;9.472;2022-12-07T08:10:30;98655.56;;;2.81;100.00
6413;BME280;3239;48.714;9.472;2022-12-07T08:12:58;98647.66;;;2.69;100.00
6413;BME280;3239;48.714;9.472;2022-12-07T08:15:38;98659.59;;;2.86;100.00
6413;BME280;3239;48.714;9.472;2022-12-07T08:18:04;98657.41;;;2.99;100.00
6413;BME280;3239;48.714;9.472;2022-12-07T08:20:31;98658.56;;;3.07;100.00
6413;BME280;3239;48.714;9.472;2022-12-07T08:22:58;98652.97;;;3.10;100.00
6413;BME280;3239;48.714;9.472;2022-12-07T08:25:24;98648.41;;;3.16;100.00
6413;BME280;3239;48.714;9.472;2022-12-07T08:27:51;98652.56;;;3.26;100.00
6413;BME280;3239;48.714;9.472;2022-12-07T08:30:18;98635.63;;;3.17;100.00
6413;BME280;3239;48.714;9.472;2022-12-07T08:32:45;98636.69;;;3.19;100.00
6413;BME280;3239;48.714;9.472;2022-12-07T08:35:11;98630.44;;;3.28;100.00
6413;BME280;3239;48.714;9.472;2022-12-07T08:37:37;98621.63;;;3.18;100.00
6413;BME280;3239;48.714;9.472;2022-12-07T08:40:04;98624.97;;;3.13;100.00
6413;BME280;3239;48.714;9.472;2022-12-07T08:42:30;98606.16;;;3.33;100.00
6413;BME280;3239;48.714;9.472;2022-12-07T08:45:09;98599.19;;;3.41;100.00
6413;BME280;3239;48.714;9.472;2022-12-07T08:47:38;98588.50;;;3.23;100.00
6413;BME280;3239;48.714;9.472;2022-12-07T08:50:07;98579.16;;;3.24;100.00
6413;BME280;3239;48.714;9.472;2022-12-07T08:52:36;98575.06;;;3.29;100.00
6413;BME280;3239;48.714;9.472;2022-12-07T08:55:04;98568.44;;;3.30;100.00
6413;BME280;3239;48.714;9.472;2022-12-07T08:57:31;98562.63;;;3.22;100.00
6413;BME280;3239;48.714;9.472;2022-12-07T08:59:59;98554.44;;;3.31;100.00
6413;BME280;3239;48.714;9.472;2022-12-07T09:02:24;98547.63;;;3.36;100.00
6413;BME280;3239;48.714;9.472;2022-12-07T09:04:50;98533.34;;;3.35;100.00
6413;BME280;3239;48.714;9.472;2022-12-07T09:07:16;98529.97;;;3.40;100.00
6413;BME280;3239;48.714;9.472;2022-12-07T09:09:42;98528.56;;;3.59;100.00
6413;BME280;3239;48.714;9.472;2022-12-07T09:12:08;98526.19;;;3.81;100.00
6413;BME280;3239;48.714;9.472;2022-12-07T09:14:36;98513.16;;;4.00;100.00
6413;BME280;3239;48.714;9.472;2022-12-07T09:17:10;98495.81;;;3.92;100.00
6413;BME280;3239;48.714;9.472;2022-12-07T09:19:37;98490.09;;;4.24;100.00
6413;BME280;3239;48.714;9.472;2022-12-07T09:22:04;98486.09;;;4.20;100.00
6413;BME280;3239;48.714;9.472;2022-12-07T09:24:31;98470.72;;;4.31;100.00
6413;BME280;3239;48.714;9.472;2022-12-07T09:26:57;98466.84;;;4.38;100.00
6413;BME280;3239;48.714;9.472;2022-12-07T09:29:24;98447.84;;;3.98;100.00
6413;BME280;3239;48.714;9.472;2022-12-07T09:31:51;98443.81;;;4.28;100.00
6413;BME280;3239;48.714;9.472;2022-12-07T09:34:17;98438.91;;;4.52;100.00
6413;BME280;3239;48.714;9.472;2022-12-07T09:36:43;98430.25;;;4.28;100.00
6413;BME280;3239;48.714;9.472;2022-12-07T09:39:10;98420.81;;;4.69;100.00
6413;BME280;3239;48.714;9.472;2022-12-07T09:41:40;98416.97;;;4.55;100.00
6413;BME280;3239;48.714;9.472;2022-12-07T09:44:17;98421.91;;;4.51;100.00
6413;BME280;3239;48.714;9.472;2022-12-07T09:46:46;98406.78;;;4.70;100.00
6413;BME280;3239;48.714;9.472;2022-12-07T09:49:19;98402.13;;;4.71;100.00
6413;BME280;3239;48.714;9.472;2022-12-07T09:51:46;98390.63;;;4.36;100.00
6413;BME280;3239;48.714;9.472;2022-12-07T09:54:14;98395.03;;;4.53;100.00
6413;BME280;3239;48.714;9.472;2022-12-07T09:56:42;98394.47;;;4.49;100.00
6413;BME280;3239;48.714;9.472;2022-12-07T09:59:17;98372.63;;;4.33;100.00
6413;BME280;3239;48.714;9.472;2022-12-07T10:01:46;98377.47;;;4.49;100.00
6413;BME280;3239;48.714;9.472;2022-12-07T10:04:24;98380.81;;;4.64;100.00
6413;BME280;3239;48.714;9.472;2022-12-07T10:06:51;98378.91;;;4.95;100.00
6413;BME280;3239;48.714;9.472;2022-12-07T10:09:20;98355.03;;;5.05;100.00
6413;BME280;3239;48.714;9.472;2022-12-07T10:12:11;98354.00;;;5.33;100.00
6413;BME280;3239;48.714;9.472;2022-12-07T10:15:01;98333.81;;;5.40;100.00
6413;BME280;3239;48.714;9.472;2022-12-07T10:17:39;98323.13;;;5.31;100.00
6413;BME280;3239;48.714;9.472;2022-12-07T10:23:24;98317.97;;;5.80;100.00
6413;BME280;3239;48.714;9.472;2022-12-07T10:25:50;98307.47;;;5.57;100.00
6413;BME280;3239;48.714;9.472;2022-12-07T10:28:20;98294.13;;;5.17;100.00
6413;BME280;3239;48.714;9.472;2022-12-07T10:31:02;98285.84;;;4.95;100.00
6413;BME280;3239;48.714;9.472;2022-12-07T10:36:23;98280.78;;;5.13;100.00
6413;BME280;3239;48.714;9.472;2022-12-07T10:39:15;98281.31;;;5.17;100.00
6413;BME280;3239;48.714;9.472;2022-12-07T10:42:02;98278.47;;;5.43;100.00
6413;BME280;3239;48.714;9.472;2022-12-07T10:44:33;98281.44;;;5.39;100.00
6413;BME280;3239;48.714;9.472;2022-12-07T11:05:39;98256.88;;;4.81;100.00
6413;BME280;3239;48.714;9.472;2022-12-07T11:11:30;98261.84;;;4.88;100.00
6413;BME280;3239;48.714;9.472;2022-12-07T11:17:01;98259.59;;;4.81;100.00
6413;BME280;3239;48.714;9.472;2022-12-07T11:22:20;98262.41;;;4.97;100.00
6413;BME280;3239;48.714;9.472;2022-12-07T11:28:17;98252.56;;;4.69;100.00
6413;BME280;3239;48.714;9.472;2022-12-07T11:33:53;98253.09;;;4.73;100.00
6413;BME280;3239;48.714;9.472;2022-12-07T11:36:47;98248.44;;;4.73;100.00
6413;BME280;3239;48.714;9.472;2022-12-07T11:39:23;98241.59;;;4.83;100.00
6413;BME280;3239;48.714;9.472;2022-12-07T11:42:02;98237.75;;;5.01;100.00
6413;BME280;3239;48.714;9.472;2022-12-07T11:45:01;98245.75;;;5.15;100.00
6413;BME280;3239;48.714;9.472;2022-12-07T11:50:41;98230.41;;;5.12;100.00
6413;BME280;3239;48.714;9.472;2022-12-07T12:06:41;98209.28;;;5.33;100.00
6413;BME280;3239;48.714;9.472;2022-12-07T12:09:40;98207.63;;;5.52;100.00
6413;BME280;3239;48.714;9.472;2022-12-07T12:23:41;98185.78;;;4.77;100.00
6413;BME280;3239;48.714;9.472;2022-12-07T12:26:21;98193.00;;;4.85;100.00
6413;BME280;3239;48.714;9.472;2022-12-07T12:28:50;98190.47;;;4.76;100.00
6413;BME280;3239;48.714;9.472;2022-12-07T12:33:52;98180.78;;;4.64;100.00
6413;BME280;3239;48.714;9.472;2022-12-07T12:36:45;98194.00;;;4.88;100.00
6413;BME280;3239;48.714;9.472;2022-12-07T12:39:18;98190.06;;;4.89;100.00
6413;BME280;3239;48.714;9.472;2022-12-07T12:46:55;98181.19;;;4.88;100.00
6413;BME280;3239;48.714;9.472;2022-12-07T12:51:57;98179.72;;;4.98;100.00
6413;BME280;3239;48.714;9.472;2022-12-07T12:54:28;98184.91;;;4.96;100.00
6413;BME280;3239;48.714;9.472;2022-12-07T13:02:33;98172.59;;;5.01;100.00
6413;BME280;3239;48.714;9.472;2022-12-07T13:10:38;98175.38;;;5.12;100.00
6413;BME280;3239;48.714;9.472;2022-12-07T13:34:28;98150.16;;;5.06;100.00
6413;BME280;3239;48.714;9.472;2022-12-07T13:36:54;98155.88;;;5.13;100.00
6413;BME280;3239;48.714;9.472;2022-12-07T13:39:24;98151.63;;;5.01;100.00
6413;BME280;3239;48.714;9.472;2022-12-07T13:41:57;98160.66;;;4.87;100.00
6413;BME280;3239;48.714;9.472;2022-12-07T13:44:28;98176.00;;;4.90;100.00
6413;BME280;3239;48.714;9.472;2022-12-07T13:47:28;98187.63;;;4.91;100.00
6413;BME280;3239;48.714;9.472;2022-12-07T13:49:57;98180.00;;;5.00;100.00
6413;BME280;3239;48.714;9.472;2022-12-07T13:52:29;98186.88;;;4.96;100.00
6413;BME280;3239;48.714;9.472;2022-12-07T13:57:34;98197.41;;;4.83;100.00
6413;BME280;3239;48.714;9.472;2022-12-07T14:00:13;98201.09;;;4.80;100.00
6413;BME280;3239;48.714;9.472;2022-12-07T14:05:40;98206.81;;;4.87;100.00
6413;BME280;3239;48.714;9.472;2022-12-07T14:10:57;98211.47;;;4.81;100.00
6413;BME280;3239;48.714;9.472;2022-12-07T14:13:56;98211.22;;;4.79;100.00
6413;BME280;3239;48.714;9.472;2022-12-07T14:16:35;98212.16;;;4.71;100.00
6413;BME280;3239;48.714;9.472;2022-12-07T14:19:45;98211.31;;;4.59;100.00
6413;BME280;3239;48.714;9.472;2022-12-07T14:22:33;98208.44;;;4.68;100.00
6413;BME280;3239;48.714;9.472;2022-12-07T14:27:47;98211.00;;;4.83;100.00
6413;BME280;3239;48.714;9.472;2022-12-07T14:30:18;98214.22;;;4.87;100.00
6413;BME280;3239;48.714;9.472;2022-12-07T14:32:44;98206.03;;;4.81;100.00
6413;BME280;3239;48.714;9.472;2022-12-07T14:35:16;98206.28;;;4.78;100.00
6413;BME280;3239;48.714;9.472;2022-12-07T14:37:46;98211.16;;;4.68;100.00
6413;BME280;3239;48.714;9.472;2022-12-07T14:40:25;98212.81;;;4.60;100.00
6413;BME280;3239;48.714;9.472;2022-12-07T14:43:00;98216.53;;;4.63;100.00
6413;BME280;3239;48.714;9.472;2022-12-07T14:45:28;98222.78;;;4.43;100.00
6413;BME280;3239;48.714;9.472;2022-12-07T14:47:54;98217.91;;;4.47;100.00
6413;BME280;3239;48.714;9.472;2022-12-07T14:50:21;98220.63;;;4.53;100.00
6413;BME280;3239;48.714;9.472;2022-12-07T14:52:54;98218.22;;;4.55;100.00
6413;BME280;3239;48.714;9.472;2022-12-07T14:57:51;98216.00;;;4.59;100.00
6413;BME280;3239;48.714;9.472;2022-12-07T15:00:18;98222.09;;;4.48;100.00
6413;BME280;3239;48.714;9.472;2022-12-07T15:02:46;98225.34;;;4.52;100.00
6413;BME280;3239;48.714;9.472;2022-12-07T15:05:12;98225.13;;;4.56;100.00
6413;BME280;3239;48.714;9.472;2022-12-07T15:07:39;98225.25;;;4.41;100.00
6413;BME280;3239;48.714;9.472;2022-12-07T15:10:13;98220.34;;;4.45;100.00
6413;BME280;3239;48.714;9.472;2022-12-07T15:12:40;98221.34;;;4.48;100.00
6413;BME280;3239;48.714;9.472;2022-12-07T15:15:06;98224.72;;;4.37;100.00
6413;BME280;3239;48.714;9.472;2022-12-07T15:17:32;98224.25;;;4.39;100.00
6413;BME280;3239;48.714;9.472;2022-12-07T15:19:57;98228.44;;;4.40;100.00
6413;BME280;3239;48.714;9.472;2022-12-07T15:22:23;98228.91;;;4.38;100.00
6413;BME280;3239;48.714;9.472;2022-12-07T15:24:49;98233.81;;;4.34;100.00
6413;BME280;3239;48.714;9.472;2022-12-07T15:27:14;98229.13;;;4.35;100.00
6413;BME280;3239;48.714;9.472;2022-12-07T15:29:40;98234.31;;;4.33;100.00
6413;BME280;3239;48.714;9.472;2022-12-07T15:32:06;98237.75;;;4.33;100.00
6413;BME280;3239;48.714;9.472;2022-12-07T15:34:32;98239.19;;;4.29;100.00
6413;BME280;3239;48.714;9.472;2022-12-07T15:36:57;98238.91;;;4.27;100.00
6413;BME280;3239;48.714;9.472;2022-12-07T15:39:23;98228.75;;;4.22;100.00
6413;BME280;3239;48.714;9.472;2022-12-07T15:41:49;98235.41;;;4.21;100.00
6413;BME280;3239;48.714;9.472;2022-12-07T15:44:15;98233.16;;;4.19;100.00
6413;BME280;3239;48.714;9.472;2022-12-07T15:47:00;98238.59;;;4.19;100.00
6413;BME280;3239;48.714;9.472;2022-12-07T15:49:27;98239.56;;;4.16;100.00
6413;BME280;3239;48.714;9.472;2022-12-07T15:51:53;98236.31;;;4.12;100.00
6413;BME280;3239;48.714;9.472;2022-12-07T15:54:23;98239.25;;;4.09;100.00
6413;BME280;3239;48.714;9.472;2022-12-07T15:56:49;98240.69;;;4.04;100.00
6413;BME280;3239;48.714;9.472;2022-12-07T15:59:15;98235.25;;;4.04;100.00
6413;BME280;3239;48.714;9.472;2022-12-07T16:01:41;98237.44;;;4.00;100.00
6413;BME280;3239;48.714;9.472;2022-12-07T16:04:07;98234.44;;;3.98;100.00
6413;BME280;3239;48.714;9.472;2022-12-07T16:06:33;98231.47;;;3.96;100.00
6413;BME280;3239;48.714;9.472;2022-12-07T16:08:59;98241.59;;;3.96;100.00
6413;BME280;3239;48.714;9.472;2022-12-07T16:11:25;98228.44;;;3.89;100.00
6413;BME280;3239;48.714;9.472;2022-12-07T16:13:50;98234.06;;;3.85;100.00
6413;BME280;3239;48.714;9.472;2022-12-07T16:16:18;98234.88;;;3.91;100.00
6413;BME280;3239;48.714;9.472;2022-12-07T16:18:46;98235.41;;;3.95;100.00